createdAt,value
2019-02-18T00:02:07.302Z,50.50
2019-02-18T00:04:37.223Z,28.87
2019-02-18T00:07:13.989Z,28.87
2019-02-18T00:09:39.028Z,30.37
2019-02-18T00:12:08.937Z,30.43
2019-02-18T00:14:39.320Z,29.07
2019-02-18T00:17:09.465Z,30.77
2019-02-18T00:19:39.652Z,28.67
2019-02-18T00:22:10.104Z,28.20
2019-02-18T00:24:40.019Z,27.43
2019-02-18T00:27:09.931Z,27.97
2019-02-18T00:29:39.895Z,28.53
2019-02-18T00:32:09.823Z,28.20
2019-02-18T00:34:40.175Z,28.23
2019-02-18T00:37:10.068Z,27.90
2019-02-18T00:39:40.020Z,29.67
2019-02-18T00:42:09.958Z,27.23
2019-02-18T00:44:39.916Z,27.73
2019-02-18T00:47:09.908Z,28.87
2019-02-18T00:49:40.090Z,31.00
2019-02-18T00:52:09.997Z,29.70
2019-02-18T00:54:39.905Z,26.43
2019-02-18T00:57:09.810Z,28.57
2019-02-18T00:59:39.690Z,29.70
2019-02-18T01:02:09.663Z,26.43
2019-02-18T01:04:39.567Z,28.90
2019-02-18T01:07:10.103Z,26.17
2019-02-18T01:09:40.796Z,27.00
2019-02-18T01:12:10.847Z,28.07
2019-02-18T01:14:40.785Z,26.80
2019-02-18T01:17:10.687Z,30.30
2019-02-18T01:19:40.595Z,28.20
2019-02-18T01:22:10.520Z,25.97
2019-02-18T01:24:40.690Z,26.80
2019-02-18T01:27:10.595Z,29.70
2019-02-18T01:29:40.495Z,29.43
2019-02-18T01:32:10.441Z,28.87
2019-02-18T01:34:40.489Z,29.03
2019-02-18T01:37:10.504Z,26.73
2019-02-18T01:39:40.409Z,27.23
2019-02-18T01:42:10.322Z,28.10
2019-02-18T01:44:40.300Z,26.43
2019-02-18T01:47:10.208Z,27.77
2019-02-18T01:49:40.226Z,28.33
2019-02-18T01:52:10.203Z,29.17
2019-02-18T01:54:40.118Z,25.33
2019-02-18T01:57:10.048Z,29.80
2019-02-18T01:59:39.967Z,30.47
2019-02-18T02:02:09.964Z,27.87
2019-02-18T02:04:39.867Z,25.40
2019-02-18T02:07:09.815Z,26.33
2019-02-18T02:09:39.816Z,28.47
2019-02-18T02:12:09.739Z,24.27
2019-02-18T02:14:39.964Z,30.17
2019-02-18T02:17:09.939Z,28.07
2019-02-18T02:19:39.941Z,28.13
2019-02-18T02:22:10.018Z,24.67
2019-02-18T02:24:40.347Z,25.77
2019-02-18T02:27:10.268Z,26.87
2019-02-18T02:29:40.168Z,25.53
2019-02-18T02:32:10.085Z,28.73
2019-02-18T02:34:40.065Z,26.13
2019-02-18T02:37:10.165Z,28.70
2019-02-18T02:39:40.361Z,28.43
2019-02-18T02:42:10.585Z,28.43
2019-02-18T02:44:40.520Z,29.17
2019-02-18T02:47:10.918Z,28.73
2019-02-18T02:49:40.856Z,25.33
2019-02-18T02:52:11.010Z,26.33
2019-02-18T02:54:41.505Z,29.70
2019-02-18T02:57:11.420Z,27.33
2019-02-18T02:59:41.328Z,30.87
2019-02-18T03:02:11.234Z,27.10
2019-02-18T03:04:41.150Z,29.83
2019-02-18T03:07:11.450Z,29.67
2019-02-18T03:09:41.580Z,28.57
2019-02-18T03:12:11.483Z,29.23
2019-02-18T03:14:41.397Z,27.13
2019-02-18T03:17:11.307Z,29.53
2019-02-18T03:19:41.255Z,29.13
2019-02-18T03:22:11.143Z,29.20
2019-02-18T03:25:37.872Z,26.97
2019-02-18T03:28:13.898Z,29.30
2019-02-18T03:30:58.264Z,29.27
2019-02-18T03:33:37.345Z,26.73
2019-02-18T03:36:07.575Z,26.90
2019-02-18T03:38:37.821Z,29.70
2019-02-18T03:41:07.751Z,28.83
2019-02-18T03:43:38.019Z,31.97
2019-02-18T03:46:08.265Z,27.77
2019-02-18T03:48:38.489Z,31.73
2019-02-18T03:51:08.415Z,30.70
2019-02-18T03:53:38.390Z,29.07
2019-02-18T03:56:08.408Z,27.90
2019-02-18T03:58:38.454Z,28.27
2019-02-18T04:01:08.442Z,28.60
2019-02-18T04:03:38.790Z,26.33
2019-02-18T04:06:08.709Z,29.33
2019-02-18T04:08:43.100Z,26.93
2019-02-18T04:11:10.281Z,30.03
2019-02-18T04:13:40.181Z,29.07
2019-02-18T04:16:10.171Z,29.53
2019-02-18T04:18:40.087Z,29.23
2019-02-18T04:21:10.001Z,27.43
2019-02-18T04:23:39.904Z,30.30
2019-02-18T04:26:09.843Z,27.57
2019-02-18T04:28:39.962Z,26.43
2019-02-18T04:31:10.124Z,25.77
2019-02-18T04:33:40.001Z,28.00
2019-02-18T04:36:09.964Z,25.67
2019-02-18T04:38:39.891Z,27.63
2019-02-18T04:41:09.794Z,28.40
2019-02-18T04:43:42.010Z,28.70
2019-02-18T04:46:11.384Z,27.77
2019-02-18T04:48:41.311Z,24.97
2019-02-18T04:51:11.401Z,25.73
2019-02-18T04:53:41.344Z,25.07
2019-02-18T04:56:11.239Z,25.93
2019-02-18T04:58:41.202Z,27.47
2019-02-18T05:01:11.148Z,26.03
2019-02-18T05:03:41.377Z,26.90
2019-02-18T05:06:11.327Z,28.50
2019-02-18T05:08:41.719Z,28.03
2019-02-18T05:11:11.736Z,27.23
2019-02-18T05:13:41.644Z,25.43
2019-02-18T05:16:11.607Z,28.37
2019-02-18T05:18:41.530Z,25.87
2019-02-18T05:21:11.721Z,26.53
2019-02-18T05:23:41.623Z,28.80
2019-02-18T05:26:11.516Z,27.10
2019-02-18T05:28:41.421Z,25.03
2019-02-18T05:31:11.650Z,27.87
2019-02-18T05:33:41.827Z,27.13
2019-02-18T05:36:12.127Z,30.37
2019-02-18T05:38:42.112Z,26.47
2019-02-18T05:41:12.056Z,27.63
2019-02-18T05:43:42.297Z,26.93
2019-02-18T05:46:12.267Z,27.30
2019-02-18T05:48:42.547Z,30.53
2019-02-18T05:51:13.054Z,26.33
2019-02-18T05:53:43.017Z,23.83
2019-02-18T05:56:13.142Z,24.40
2019-02-18T05:58:43.062Z,28.03
2019-02-18T06:01:12.966Z,28.20
2019-02-18T06:03:42.961Z,30.17
2019-02-18T06:06:12.881Z,26.80
2019-02-18T06:08:43.105Z,31.20
2019-02-18T06:11:13.082Z,25.43
2019-02-18T06:13:43.031Z,27.83
2019-02-18T06:16:12.955Z,28.10
2019-02-18T06:18:42.888Z,28.60
2019-02-18T06:21:12.834Z,26.23
2019-02-18T06:23:43.041Z,28.20
2019-02-18T06:26:12.954Z,28.60
2019-02-18T06:28:43.227Z,24.57
2019-02-18T06:31:13.263Z,30.60
2019-02-18T06:33:43.252Z,29.60
2019-02-18T06:36:13.187Z,32.30
2019-02-18T06:38:43.106Z,27.50
2019-02-18T06:41:13.081Z,31.23
2019-02-18T06:43:43.023Z,26.83
2019-02-18T06:46:26.549Z,27.57
2019-02-18T06:49:03.486Z,30.07
2019-02-18T06:51:33.485Z,27.30
2019-02-18T06:54:03.429Z,27.60
2019-02-18T06:57:04.629Z,28.00
2019-02-18T06:59:45.146Z,28.93
2019-02-18T07:02:22.321Z,31.33
2019-02-18T07:05:07.811Z,32.40
2019-02-18T07:08:03.226Z,28.30
2019-02-18T07:10:54.886Z,26.63
2019-02-18T07:13:25.325Z,28.93
2019-02-18T07:15:55.264Z,28.77
2019-02-18T07:18:25.299Z,29.63
2019-02-18T07:20:56.153Z,30.10
2019-02-18T07:23:26.086Z,35.23
2019-02-18T07:25:56.205Z,29.40
2019-02-18T07:28:26.190Z,33.20
2019-02-18T07:30:56.241Z,31.00
2019-02-18T07:33:26.225Z,33.27
2019-02-18T07:35:56.714Z,29.00
2019-02-18T07:38:26.732Z,27.27
2019-02-18T07:40:56.906Z,33.80
2019-02-18T07:43:26.807Z,32.33
2019-02-18T07:45:56.908Z,28.40
2019-02-18T07:48:26.882Z,29.27
2019-02-18T07:50:56.994Z,35.50
2019-02-18T07:53:26.928Z,32.77
2019-02-18T07:55:56.936Z,28.90
2019-02-18T07:58:26.920Z,33.57
2019-02-18T08:00:56.923Z,32.47
2019-02-18T08:03:27.190Z,26.13
2019-02-18T08:05:57.441Z,35.80
2019-02-18T08:08:27.418Z,29.73
2019-02-18T08:10:57.673Z,28.97
2019-02-18T08:13:27.664Z,31.57
2019-02-18T08:15:57.596Z,30.00
2019-02-18T08:18:27.535Z,29.33
2019-02-18T08:20:58.030Z,30.90
2019-02-18T08:23:28.290Z,33.33
2019-02-18T08:25:58.293Z,28.30
2019-02-18T08:28:28.512Z,30.00
2019-02-18T08:30:58.477Z,28.17
2019-02-18T08:33:28.387Z,28.07
2019-02-18T08:35:58.545Z,31.13
2019-02-18T08:38:28.483Z,28.97
2019-02-18T08:40:58.672Z,29.30
2019-02-18T08:43:29.167Z,24.93
2019-02-18T08:45:59.420Z,28.90
2019-02-18T08:48:29.793Z,26.43
2019-02-18T08:50:59.682Z,29.43
2019-02-18T08:53:30.399Z,28.93
2019-02-18T08:56:00.319Z,27.03
2019-02-18T08:58:30.347Z,27.77
2019-02-18T09:01:02.528Z,28.40
2019-02-18T09:03:32.139Z,28.00
2019-02-18T09:06:02.437Z,24.87
2019-02-18T09:08:32.537Z,26.70
2019-02-18T09:11:02.702Z,27.37
2019-02-18T09:13:33.127Z,27.43
2019-02-18T09:16:03.143Z,32.10
2019-02-18T09:18:33.367Z,28.03
2019-02-18T09:21:03.341Z,23.73
2019-02-18T09:23:52.480Z,22.77
2019-02-18T09:26:22.607Z,28.10
2019-02-18T09:28:52.681Z,24.43
2019-02-18T09:31:27.921Z,26.43
2019-02-18T09:33:58.371Z,26.30
2019-02-18T09:36:30.901Z,25.20
2019-02-18T09:39:01.003Z,22.97
2019-02-18T09:41:30.932Z,23.50
2019-02-18T09:44:00.893Z,23.57
2019-02-18T09:46:30.974Z,23.20
2019-02-18T09:49:01.097Z,25.77
2019-02-18T09:51:32.810Z,24.57
2019-02-18T09:54:02.955Z,22.93
2019-02-18T09:56:36.341Z,26.00
2019-02-18T09:59:06.383Z,26.60
2019-02-18T10:01:36.336Z,27.87
2019-02-18T10:04:06.785Z,26.87
2019-02-18T10:06:37.062Z,24.17
2019-02-18T10:09:08.616Z,26.70
2019-02-18T10:11:38.560Z,31.90
2019-02-18T10:14:08.595Z,34.63
2019-02-18T10:16:38.613Z,25.93
2019-02-18T10:19:08.776Z,28.30
2019-02-18T10:21:39.156Z,24.67
2019-02-18T10:24:09.873Z,24.50
2019-02-18T10:26:40.200Z,30.63
2019-02-18T10:29:10.346Z,39.70
2019-02-18T10:31:40.721Z,33.97
2019-02-18T10:34:10.735Z,29.80
2019-02-18T10:36:41.354Z,25.90
2019-02-18T10:39:11.490Z,31.80
2019-02-18T10:41:41.798Z,24.87
2019-02-18T10:44:12.032Z,23.20
2019-02-18T10:46:43.707Z,31.80
2019-02-18T10:49:19.882Z,21.17
2019-02-18T10:51:45.694Z,27.87
2019-02-18T10:54:15.790Z,27.63
2019-02-18T10:56:46.182Z,20.07
2019-02-18T10:59:16.201Z,20.33
2019-02-18T11:01:46.133Z,32.17
2019-02-18T11:04:16.435Z,27.67
2019-02-18T11:06:46.753Z,19.70
2019-02-18T11:09:16.727Z,24.30
2019-02-18T11:11:46.790Z,20.30
2019-02-18T11:14:16.886Z,20.37
2019-02-18T11:16:47.041Z,21.83
2019-02-18T11:19:17.826Z,18.97
2019-02-18T11:21:48.337Z,21.07
2019-02-18T11:24:20.684Z,20.43
2019-02-18T11:26:50.427Z,18.10
2019-02-18T11:29:20.376Z,19.67
2019-02-18T11:31:50.381Z,20.57
2019-02-18T11:34:20.341Z,24.33
2019-02-18T11:36:50.398Z,22.87
2019-02-18T11:39:20.325Z,22.30
2019-02-18T11:41:50.300Z,23.57
2019-02-18T11:44:20.247Z,23.10
2019-02-18T11:46:50.205Z,17.90
2019-02-18T11:49:20.444Z,20.23
2019-02-18T11:51:50.586Z,20.33
2019-02-18T11:54:22.426Z,26.43
2019-02-18T11:56:52.728Z,22.27
2019-02-18T11:59:24.597Z,19.70
2019-02-18T12:01:54.735Z,19.27
2019-02-18T12:04:25.010Z,22.47
2019-02-18T12:06:55.308Z,22.53
2019-02-18T12:09:25.691Z,22.07
2019-02-18T12:11:55.753Z,18.50
2019-02-18T12:14:27.513Z,20.20
2019-02-18T12:16:57.602Z,21.80
2019-02-18T12:19:28.184Z,24.77
2019-02-18T12:21:58.929Z,25.33
2019-02-18T12:24:29.961Z,28.67
2019-02-18T12:27:01.231Z,20.20
2019-02-18T12:29:31.311Z,20.23
2019-02-18T12:32:01.452Z,21.97
2019-02-18T12:34:31.454Z,23.20
2019-02-18T12:37:01.411Z,20.87
2019-02-18T12:39:31.561Z,25.37
2019-02-18T12:42:01.550Z,22.60
2019-02-18T12:44:32.052Z,26.13
2019-02-18T12:47:02.235Z,24.90
2019-02-18T12:49:32.476Z,19.50
2019-02-18T12:52:02.351Z,22.93
2019-02-18T12:54:32.416Z,22.93
2019-02-18T12:57:02.485Z,22.23
2019-02-18T12:59:32.669Z,21.23
2019-02-18T13:02:03.163Z,19.77
2019-02-18T13:04:33.661Z,21.40
2019-02-18T13:07:03.761Z,20.80
2019-02-18T13:09:33.756Z,20.70
2019-02-18T13:12:03.726Z,21.77
2019-02-18T13:14:33.988Z,20.20
2019-02-18T13:17:04.311Z,21.30
2019-02-18T13:19:34.384Z,19.93
2019-02-18T13:22:04.551Z,21.20
2019-02-18T13:24:34.491Z,21.93
2019-02-18T13:27:04.465Z,26.17
2019-02-18T13:29:34.474Z,20.93
2019-02-18T13:32:04.514Z,22.93
2019-02-18T13:34:34.494Z,19.40
2019-02-18T13:37:05.475Z,20.07
2019-02-18T13:39:35.507Z,21.23
2019-02-18T13:42:07.728Z,21.83
2019-02-18T13:44:37.163Z,23.20
2019-02-18T13:47:07.127Z,23.77
2019-02-18T13:49:37.520Z,26.30
2019-02-18T13:52:08.831Z,26.81
2019-02-18T13:54:40.784Z,22.33
2019-02-18T13:57:10.951Z,20.93
2019-02-18T13:59:42.395Z,26.57
2019-02-18T14:02:12.515Z,22.63
2019-02-18T14:04:42.440Z,24.03
2019-02-18T14:07:12.366Z,21.40
2019-02-18T14:09:42.293Z,22.90
2019-02-18T14:12:16.208Z,18.70
2019-02-18T14:14:43.979Z,22.00
2019-02-18T14:17:15.725Z,20.63
2019-02-18T14:19:46.307Z,20.43
2019-02-18T14:22:16.253Z,22.30
2019-02-18T14:24:46.242Z,29.37
2019-02-18T14:27:16.541Z,25.10
2019-02-18T14:29:46.447Z,22.63
2019-02-18T14:32:16.598Z,20.87
2019-02-18T14:34:46.518Z,24.83
2019-02-18T14:37:16.528Z,20.80
2019-02-18T14:39:46.868Z,19.47
2019-02-18T14:42:24.315Z,22.00
2019-02-18T14:44:48.848Z,22.10
2019-02-18T14:47:18.847Z,19.57
2019-02-18T14:49:49.022Z,22.03
2019-02-18T14:52:19.476Z,22.60
2019-02-18T14:54:49.946Z,22.67
2019-02-18T14:57:19.912Z,18.57
2019-02-18T14:59:50.097Z,23.57
2019-02-18T15:02:20.507Z,20.47
2019-02-18T15:04:50.564Z,20.23
2019-02-18T15:07:20.496Z,20.37
2019-02-18T15:09:50.514Z,18.60
2019-02-18T15:12:21.228Z,20.07
2019-02-18T15:14:51.212Z,18.70
2019-02-18T15:17:21.733Z,20.97
2019-02-18T15:19:51.870Z,22.27
2019-02-18T15:22:22.072Z,18.03
2019-02-18T15:24:52.394Z,18.67
2019-02-18T15:27:22.663Z,21.77
2019-02-18T15:29:53.649Z,22.73
2019-02-18T15:32:24.636Z,19.20
2019-02-18T15:34:55.327Z,21.17
2019-02-18T15:37:25.337Z,18.93
2019-02-18T15:39:57.423Z,20.50
2019-02-18T15:42:28.094Z,20.70
2019-02-18T15:44:58.363Z,24.73
2019-02-18T15:47:28.394Z,21.63
2019-02-18T15:49:58.926Z,25.50
2019-02-18T15:52:29.471Z,21.00
2019-02-18T15:55:09.262Z,26.23
2019-02-18T15:57:39.368Z,22.37
2019-02-18T16:00:14.972Z,21.17
2019-02-18T16:02:46.326Z,22.13
2019-02-18T16:05:16.608Z,19.33
2019-02-18T16:07:46.970Z,22.30
2019-02-18T16:10:17.133Z,21.40
2019-02-18T16:12:50.955Z,21.37
2019-02-18T16:15:19.713Z,23.10
2019-02-18T16:17:50.145Z,18.93
2019-02-18T16:20:20.086Z,24.53
2019-02-18T16:22:50.028Z,22.27
2019-02-18T16:25:21.434Z,24.60
2019-02-18T16:27:51.447Z,21.67
2019-02-18T16:30:21.573Z,21.27
2019-02-18T16:32:51.569Z,23.67
2019-02-18T16:35:21.661Z,22.83
2019-02-18T16:37:51.750Z,22.60
2019-02-18T16:40:22.115Z,25.43
2019-02-18T16:42:59.151Z,28.50
2019-02-18T16:45:23.824Z,21.87
2019-02-18T16:47:53.874Z,20.50
2019-02-18T16:50:23.783Z,22.43
2019-02-18T16:52:53.856Z,20.97
2019-02-18T16:55:24.112Z,21.83
2019-02-18T16:57:54.526Z,23.07
2019-02-18T17:00:31.893Z,25.20
2019-02-18T17:03:02.341Z,23.93
2019-02-18T17:05:32.381Z,23.27
2019-02-18T17:08:02.298Z,31.80
2019-02-18T17:10:32.681Z,23.17
2019-02-18T17:13:08.276Z,27.97
2019-02-18T17:15:34.657Z,24.87
2019-02-18T17:18:04.607Z,26.73
2019-02-18T17:20:34.527Z,26.67
2019-02-18T17:23:04.472Z,24.47
2019-02-18T17:25:34.660Z,23.13
2019-02-18T17:28:04.589Z,29.90
2019-02-18T17:30:34.572Z,25.30
2019-02-18T17:33:04.507Z,24.17
2019-02-18T17:35:34.803Z,25.83
2019-02-18T17:38:05.062Z,22.10
2019-02-18T17:40:34.956Z,26.00
2019-02-18T17:43:04.983Z,25.70
2019-02-18T17:45:35.011Z,26.97
2019-02-18T17:48:05.003Z,29.37
2019-02-18T17:50:34.970Z,26.80
2019-02-18T17:53:05.246Z,25.30
2019-02-18T17:55:35.167Z,31.07
2019-02-18T17:58:05.358Z,31.50
2019-02-18T18:00:36.348Z,27.03
2019-02-18T18:03:06.841Z,28.80
2019-02-18T18:05:37.003Z,26.87
2019-02-18T18:08:06.951Z,26.40
2019-02-18T18:10:36.902Z,29.23
2019-02-18T18:13:07.175Z,26.60
2019-02-18T18:15:37.072Z,26.67
2019-02-18T18:18:07.017Z,29.63
2019-02-18T18:20:37.672Z,30.80
2019-02-18T18:23:07.639Z,26.63
2019-02-18T18:25:37.792Z,26.87
2019-02-18T18:28:07.804Z,26.33
2019-02-18T18:30:37.853Z,24.83
2019-02-18T18:33:08.033Z,29.67
2019-02-18T18:35:38.113Z,26.53
2019-02-18T18:38:08.136Z,26.50
2019-02-18T18:40:38.058Z,29.43
2019-02-18T18:43:08.261Z,27.57
2019-02-18T18:45:38.158Z,27.90
2019-02-18T18:48:08.902Z,29.07
2019-02-18T18:50:39.097Z,28.97
2019-02-18T18:53:09.013Z,29.10
2019-02-18T18:55:38.962Z,27.57
2019-02-18T18:58:08.918Z,27.87
2019-02-18T19:00:39.396Z,30.10
2019-02-18T19:03:09.695Z,27.97
2019-02-18T19:05:39.608Z,28.60
2019-02-18T19:08:09.857Z,31.43
2019-02-18T19:10:39.874Z,25.27
2019-02-18T19:13:10.883Z,27.30
2019-02-18T19:15:49.283Z,26.63
2019-02-18T19:18:13.155Z,28.53
2019-02-18T19:20:43.064Z,31.27
2019-02-18T19:23:13.246Z,30.83
2019-02-18T19:25:43.194Z,35.43
2019-02-18T19:28:13.500Z,33.80
2019-02-18T19:30:44.020Z,27.17
2019-02-18T19:33:14.040Z,30.13
2019-02-18T19:35:44.007Z,30.97
2019-02-18T19:38:15.701Z,28.97
2019-02-18T19:40:45.647Z,27.53
2019-02-18T19:43:15.579Z,29.17
2019-02-18T19:45:45.795Z,27.37
2019-02-18T19:48:17.095Z,27.97
2019-02-18T19:50:47.035Z,26.00
2019-02-18T19:53:16.948Z,28.73
2019-02-18T19:55:47.068Z,32.27
2019-02-18T19:58:17.039Z,29.50
2019-02-18T20:00:47.197Z,34.33
2019-02-18T20:03:17.143Z,30.50
2019-02-18T20:05:47.081Z,32.00
2019-02-18T20:08:17.516Z,29.63
2019-02-18T20:10:47.973Z,29.13
2019-02-18T20:13:18.133Z,31.70
2019-02-18T20:15:48.319Z,32.93
2019-02-18T20:18:18.281Z,31.37
2019-02-18T20:20:48.453Z,31.90
2019-02-18T20:23:18.382Z,31.57
2019-02-18T20:25:48.348Z,33.53
2019-02-18T20:28:18.331Z,30.73
2019-02-18T20:30:48.259Z,29.70
2019-02-18T20:33:18.295Z,33.70
2019-02-18T20:35:48.834Z,30.67
2019-02-18T20:38:18.869Z,29.40
2019-02-18T20:40:49.212Z,28.43
2019-02-18T20:43:19.079Z,29.03
2019-02-18T20:45:49.172Z,35.80
2019-02-18T20:48:19.172Z,31.60
2019-02-18T20:50:49.293Z,34.57
2019-02-18T20:53:20.265Z,35.40
2019-02-18T20:55:50.283Z,41.47
2019-02-18T20:58:21.859Z,39.17
2019-02-18T21:00:51.937Z,37.23
2019-02-18T21:03:22.162Z,40.80
2019-02-18T21:05:53.369Z,39.40
2019-02-18T21:08:23.841Z,36.43
2019-02-18T21:10:53.801Z,37.10
2019-02-18T21:13:24.371Z,36.30
2019-02-18T21:15:56.502Z,33.73
2019-02-18T21:18:27.688Z,36.67
2019-02-18T21:20:58.590Z,37.53
2019-02-18T21:23:29.518Z,35.27
2019-02-18T21:26:01.112Z,32.03
2019-02-18T21:28:33.689Z,35.47
2019-02-18T21:31:03.744Z,33.53
2019-02-18T21:33:34.938Z,29.00
2019-02-18T21:36:07.031Z,29.20
2019-02-18T21:38:37.441Z,28.00
2019-02-18T21:41:08.827Z,27.83
2019-02-18T21:43:39.112Z,27.50
2019-02-18T21:46:09.038Z,28.23
2019-02-18T21:48:40.201Z,23.53
2019-02-18T21:51:12.028Z,28.60
2019-02-18T21:53:42.359Z,27.20
2019-02-18T21:56:12.608Z,27.40
2019-02-18T21:58:42.787Z,25.73
2019-02-18T22:01:13.916Z,26.03
2019-02-18T22:03:45.540Z,24.20
2019-02-18T22:06:15.999Z,27.33
2019-02-18T22:08:46.156Z,27.57
2019-02-18T22:11:16.920Z,24.63
2019-02-18T22:13:46.892Z,21.87
2019-02-18T22:16:16.868Z,26.60
2019-02-18T22:18:47.051Z,25.63
2019-02-18T22:21:19.480Z,23.17
2019-02-18T22:23:50.420Z,27.27
2019-02-18T22:26:20.690Z,25.57
2019-02-18T22:28:51.478Z,26.87
2019-02-18T22:31:24.594Z,25.77
2019-02-18T22:33:54.654Z,28.17
2019-02-18T22:36:25.083Z,26.47
2019-02-18T22:38:55.006Z,28.20
2019-02-18T22:41:25.480Z,27.30
2019-02-18T22:43:55.931Z,28.33
2019-02-18T22:46:27.128Z,30.93
2019-02-18T22:48:57.183Z,25.20
2019-02-18T22:51:29.274Z,27.37
2019-02-18T22:53:59.541Z,24.07
2019-02-18T22:56:29.597Z,27.43
2019-02-18T22:58:59.541Z,28.47
2019-02-18T23:01:29.649Z,26.90
2019-02-18T23:03:59.819Z,28.80
2019-02-18T23:06:29.861Z,26.73
2019-02-18T23:08:59.819Z,25.37
2019-02-18T23:11:29.742Z,26.67
2019-02-18T23:13:59.820Z,25.47
2019-02-18T23:16:30.069Z,25.33
2019-02-18T23:19:00.164Z,28.23
2019-02-18T23:21:30.361Z,25.60
2019-02-18T23:24:00.346Z,24.77
2019-02-18T23:26:31.387Z,26.33
2019-02-18T23:29:01.777Z,26.27
2019-02-18T23:31:31.759Z,26.20
2019-02-18T23:34:02.087Z,25.37
2019-02-18T23:36:32.250Z,27.27
2019-02-18T23:39:02.424Z,29.43
2019-02-18T23:41:32.637Z,25.80
2019-02-18T23:44:02.833Z,27.37
2019-02-18T23:46:32.880Z,25.80
2019-02-18T23:49:02.787Z,25.67
2019-02-18T23:51:32.713Z,31.47
2019-02-18T23:54:02.643Z,27.00
2019-02-18T23:56:32.576Z,27.33
2019-02-18T23:59:02.689Z,29.57
